Bookmark and Share
Track history (hours):
 

Siem Pilot

Last reported at 2014-Apr-16 22:32 UTC. Time now 2014-Apr-25 06:20 UTC.
Position N 44°28' W 063°27'.
Warning: this ship's position is 8 days out of date.

Length 88 m; draft 6.4 m.

Type: Other ship. MMSI: 257458000.

NotesDate/timePositionNaut miles runAvg speedWind from/ knotsBaromVisibWave heightAir tempDewpointWater temp
2014-Apr-16 22:32N 44°28' W 063°27'3 3.2
2014-Apr-16 21:31N 44°31' W 063°27'0 0.0
2014-Apr-16 20:32N 44°31' W 063°27'8 8.3
2014-Apr-16 19:31N 44°38' W 063°33'5 0.2
2014-Apr-15 23:16N 44°41' W 063°38'0 0.0
2014-Apr-15 22:33N 44°41' W 063°38'0 0.0
2014-Apr-15 21:33N 44°41' W 063°38'4 4.4
2014-Apr-15 20:32N 44°39' W 063°33'1 1.0
2014-Apr-15 19:33N 44°38' W 063°34'0 0.0
2014-Apr-15 18:32N 44°38' W 063°34'0 0.0
2014-Apr-15 17:23N 44°38' W 063°34'0 0.0
2014-Apr-15 16:20N 44°38' W 063°34'0 0.0
2014-Apr-15 15:23N 44°38' W 063°34'0 0.0
2014-Apr-15 14:26N 44°38' W 063°34'0 0.0
2014-Apr-15 09:34N 44°38' W 063°34'0 0.5
2014-Apr-15 08:34N 44°38' W 063°33'0 0.4
2014-Apr-15 07:33N 44°39' W 063°33'0 0.5
2014-Apr-15 06:34N 44°38' W 063°33'0 0.1
2014-Apr-15 05:33N 44°38' W 063°33'0 0.0
2014-Apr-15 03:34N 44°38' W 063°33'0 0.1
2014-Apr-15 02:33N 44°38' W 063°33'1 0.5
2014-Apr-15 01:34N 44°39' W 063°33'0 0.0
2014-Apr-15 00:34N 44°39' W 063°33'0 0.3
2014-Apr-14 23:33N 44°38' W 063°33'0 0.4
2014-Apr-14 22:33N 44°38' W 063°32'0 0.0
2014-Apr-14 21:33N 44°38' W 063°32'0 0.0
2014-Apr-14 20:33N 44°38' W 063°32'0 0.0
2014-Apr-14 19:33N 44°38' W 063°32'0 0.0
2014-Apr-14 18:33N 44°38' W 063°32'0 0.0
2014-Apr-14 17:33N 44°38' W 063°32'0 0.0
2014-Apr-14 16:33N 44°38' W 063°32'0 0.0
2014-Apr-14 15:33N 44°38' W 063°32'0 0.0
2014-Apr-14 14:34N 44°38' W 063°32'0 0.0
2014-Apr-14 13:34N 44°38' W 063°32'1 0.0
2014-Apr-12 22:32N 44°38' W 063°34'0 0.0
2014-Apr-12 21:32N 44°38' W 063°34'0 0.0
2014-Apr-12 20:32N 44°38' W 063°34'0 0.0
2014-Apr-12 19:23N 44°38' W 063°34'0 0.0
2014-Apr-12 18:26N 44°38' W 063°34'0 0.0
2014-Apr-12 17:26N 44°38' W 063°34'0 0.0
2014-Apr-12 16:08N 44°38' W 063°34'0 0.0
2014-Apr-12 15:29N 44°38' W 063°34'0 0.0
2014-Apr-12 14:29N 44°38' W 063°34'0 0.0
2014-Apr-12 13:29N 44°38' W 063°34'0 0.0
2014-Apr-12 12:32N 44°38' W 063°34'0 0.0
2014-Apr-12 11:17N 44°38' W 063°34'0 0.0
2014-Apr-12 10:29N 44°38' W 063°34'0 0.0
2014-Apr-12 09:32N 44°38' W 063°34'0 0.0
2014-Apr-12 08:20N 44°38' W 063°34'0 0.0
2014-Apr-12 07:32N 44°38' W 063°34'0 0.0
2014-Apr-12 06:32N 44°38' W 063°34'0 0.0
2014-Apr-12 05:23N 44°38' W 063°34'0 0.0
2014-Apr-12 04:26N 44°38' W 063°34'0 0.0
2014-Apr-12 03:26N 44°38' W 063°34'0 0.0
2014-Apr-12 02:23N 44°38' W 063°34'0 0.0
2014-Apr-12 01:29N 44°38' W 063°34'0 0.0
2014-Apr-12 00:29N 44°38' W 063°34'0 0.0
2014-Apr-11 23:26N 44°38' W 063°34'0 0.0
2014-Apr-11 22:32N 44°38' W 063°34'0 0.0
2014-Apr-11 21:17N 44°38' W 063°34'0 0.0
2014-Apr-11 20:32N 44°38' W 063°34'0 0.0
2014-Apr-11 19:32N 44°38' W 063°34'0 0.0
2014-Apr-11 18:32N 44°38' W 063°34'0 0.0
2014-Apr-11 17:32N 44°38' W 063°34'0 0.0
2014-Apr-11 16:32N 44°38' W 063°34'0 0.0
2014-Apr-11 15:23N 44°38' W 063°34'0 0.0
2014-Apr-11 13:23N 44°38' W 063°34'0 0.0
2014-Apr-11 12:23N 44°38' W 063°34'0 0.0
2014-Apr-11 11:11N 44°38' W 063°34'0 0.0
2014-Apr-11 10:29N 44°38' W 063°34'0 0.0
2014-Apr-11 09:29N 44°38' W 063°34'0 0.0
2014-Apr-11 08:32N 44°38' W 063°34'0 0.0
2014-Apr-11 07:17N 44°38' W 063°34'0 0.0
2014-Apr-11 06:32N 44°38' W 063°34'0 0.0
2014-Apr-11 05:32N 44°38' W 063°34'0 0.0
2014-Apr-11 04:32N 44°38' W 063°34'0 0.0
2014-Apr-11 03:32N 44°38' W 063°34'0 0.0
2014-Apr-11 02:32N 44°38' W 063°34'0 0.0
2014-Apr-11 01:23N 44°38' W 063°34'0 0.0
2014-Apr-11 00:23N 44°38' W 063°34'0 0.0
2014-Apr-10 23:26N 44°38' W 063°34'0 0.0
2014-Apr-10 22:26N 44°38' W 063°34'0 0.0
2014-Apr-10 21:29N 44°38' W 063°34'0 0.0
2014-Apr-10 20:26N 44°38' W 063°34'0 0.0
2014-Apr-10 19:29N 44°38' W 063°34'0 0.0
2014-Apr-10 18:32N 44°38' W 063°34'0 0.0
2014-Apr-10 17:26N 44°38' W 063°34'0 0.0
2014-Apr-09 01:14N 44°38' W 063°34'0 0.0
2014-Apr-09 00:29N 44°38' W 063°34'0 0.0
2014-Apr-08 23:32N 44°38' W 063°34'0 0.0
2014-Apr-08 22:32N 44°38' W 063°34'0 0.0
2014-Apr-08 21:29N 44°38' W 063°34'0 0.0
2014-Apr-08 20:29N 44°38' W 063°34'0 0.0
2014-Apr-08 19:32N 44°38' W 063°34'0 0.0
2014-Apr-08 18:32N 44°38' W 063°34'0 0.0
2014-Apr-08 17:20N 44°38' W 063°34'0 0.0
2014-Apr-08 16:23N 44°38' W 063°34'0 0.0
2014-Apr-08 15:26N 44°38' W 063°34'0 0.0
2014-Apr-08 14:26N 44°38' W 063°34'0 0.0
2014-Apr-08 13:26N 44°38' W 063°34'0 0.0
2014-Apr-08 12:29N 44°38' W 063°34'0 0.0
2014-Apr-08 11:29N 44°38' W 063°34'0 0.0
2014-Apr-08 10:29N 44°38' W 063°34'0 0.0
2014-Apr-08 09:32N 44°38' W 063°34'0 0.0
2014-Apr-08 08:32N 44°38' W 063°34'0 0.0
2014-Apr-08 07:32N 44°38' W 063°34'0 0.0
2014-Apr-08 06:29N 44°38' W 063°34'0 0.0
2014-Apr-08 05:32N 44°38' W 063°34'0 0.0
2014-Apr-08 04:23N 44°38' W 063°34'0 0.0
2014-Apr-08 03:32N 44°38' W 063°34'0 0.0
2014-Apr-08 02:23N 44°38' W 063°34'0 0.0
2014-Apr-08 01:26N 44°38' W 063°34'0 0.0
2014-Apr-08 00:20N 44°38' W 063°34'0 0.0
2014-Apr-07 23:26N 44°38' W 063°34'0 0.0
2014-Apr-07 22:29N 44°38' W 063°34'0 0.0
2014-Apr-07 21:29N 44°38' W 063°34'0 0.0
2014-Apr-07 20:29N 44°38' W 063°34'0 0.0
2014-Apr-07 19:32N 44°38' W 063°34'0 0.0
2014-Apr-07 17:29N 44°38' W 063°34'0 0.0
2014-Apr-07 16:14N 44°38' W 063°34'0 0.0
2014-Apr-07 15:32N 44°38' W 063°34'0 0.0
2014-Apr-07 14:20N 44°38' W 063°34'0 0.0
2014-Apr-07 13:32N 44°38' W 063°34'0 0.0
2014-Apr-07 12:20N 44°38' W 063°34'0 0.0
2014-Apr-07 11:26N 44°38' W 063°34'0 0.0
2014-Apr-07 10:26N 44°38' W 063°34'0 0.0
2014-Apr-07 09:26N 44°38' W 063°34'0 0.0
2014-Apr-07 08:29N 44°38' W 063°34'0 0.0
2014-Apr-07 07:29N 44°38' W 063°34'0 0.0
2014-Apr-07 06:29N 44°38' W 063°34'0 0.0
2014-Apr-07 05:26N 44°38' W 063°34'0 0.0
2014-Apr-07 04:32N 44°38' W 063°34'0 0.0
2014-Apr-07 03:32N 44°38' W 063°34'0 0.0
2014-Apr-07 02:32N 44°38' W 063°34'0 0.0
2014-Apr-07 01:32N 44°38' W 063°34'0 0.0
2014-Apr-07 00:20N 44°38' W 063°34'0 0.0
2014-Apr-06 23:23N 44°38' W 063°34'  

Dump ship's entire track history

sailing weather and tide predictions

Siem Pilot — LCPF — position and weather